sensor_id;sensor_type;location;lat;lon;timestamp;P1;durP1;ratioP1;P2;durP2;ratioP2
49852;SDS011;35751;48.072;11.688;2023-08-12T00:00:01;3.90;;;3.50;;
49852;SDS011;35751;48.072;11.688;2023-08-12T00:02:39;4.95;;;3.35;;
49852;SDS011;35751;48.072;11.688;2023-08-12T00:05:05;3.90;;;2.90;;
49852;SDS011;35751;48.072;11.688;2023-08-12T00:07:32;4.70;;;3.42;;
49852;SDS011;35751;48.072;11.688;2023-08-12T00:09:58;4.15;;;3.38;;
49852;SDS011;35751;48.072;11.688;2023-08-12T00:12:24;4.00;;;3.33;;
49852;SDS011;35751;48.072;11.688;2023-08-12T00:14:49;4.07;;;3.20;;
49852;SDS011;35751;48.072;11.688;2023-08-12T00:17:14;4.03;;;3.15;;
49852;SDS011;35751;48.072;11.688;2023-08-12T00:19:40;3.97;;;3.33;;
49852;SDS011;35751;48.072;11.688;2023-08-12T00:22:05;3.42;;;3.08;;
49852;SDS011;35751;48.072;11.688;2023-08-12T00:24:30;7.38;;;3.60;;
49852;SDS011;35751;48.072;11.688;2023-08-12T00:26:59;5.38;;;2.95;;
49852;SDS011;35751;48.072;11.688;2023-08-12T00:29:24;3.75;;;2.80;;
49852;SDS011;35751;48.072;11.688;2023-08-12T00:31:49;6.60;;;3.28;;
49852;SDS011;35751;48.072;11.688;2023-08-12T00:34:15;3.95;;;3.55;;
49852;SDS011;35751;48.072;11.688;2023-08-12T00:36:41;3.60;;;3.13;;
49852;SDS011;35751;48.072;11.688;2023-08-12T00:39:07;6.18;;;3.53;;
49852;SDS011;35751;48.072;11.688;2023-08-12T00:41:32;4.15;;;3.45;;
49852;SDS011;35751;48.072;11.688;2023-08-12T00:43:57;3.63;;;3.33;;
49852;SDS011;35751;48.072;11.688;2023-08-12T00:46:23;5.45;;;3.30;;
49852;SDS011;35751;48.072;11.688;2023-08-12T00:48:49;7.53;;;3.70;;
49852;SDS011;35751;48.072;11.688;2023-08-12T00:51:15;5.15;;;3.50;;
49852;SDS011;35751;48.072;11.688;2023-08-12T00:53:41;5.47;;;3.60;;
49852;SDS011;35751;48.072;11.688;2023-08-12T00:56:07;4.35;;;3.58;;
49852;SDS011;35751;48.072;11.688;2023-08-12T00:58:32;4.25;;;3.47;;
49852;SDS011;35751;48.072;11.688;2023-08-12T01:00:57;3.63;;;2.97;;
49852;SDS011;35751;48.072;11.688;2023-08-12T01:03:23;4.47;;;3.33;;
49852;SDS011;35751;48.072;11.688;2023-08-12T01:05:48;4.32;;;3.35;;
49852;SDS011;35751;48.072;11.688;2023-08-12T01:08:22;4.15;;;3.53;;
49852;SDS011;35751;48.072;11.688;2023-08-12T01:10:52;4.38;;;3.60;;
49852;SDS011;35751;48.072;11.688;2023-08-12T01:13:26;7.60;;;3.53;;
49852;SDS011;35751;48.072;11.688;2023-08-12T01:16:01;4.03;;;3.47;;
49852;SDS011;35751;48.072;11.688;2023-08-12T01:18:28;3.95;;;3.38;;
49852;SDS011;35751;48.072;11.688;2023-08-12T01:20:53;4.63;;;3.38;;
49852;SDS011;35751;48.072;11.688;2023-08-12T01:23:19;5.22;;;3.88;;
49852;SDS011;35751;48.072;11.688;2023-08-12T01:25:45;7.10;;;3.67;;
49852;SDS011;35751;48.072;11.688;2023-08-12T01:28:13;6.47;;;4.40;;
49852;SDS011;35751;48.072;11.688;2023-08-12T01:30:41;4.32;;;3.58;;
49852;SDS011;35751;48.072;11.688;2023-08-12T01:33:17;6.18;;;3.50;;
49852;SDS011;35751;48.072;11.688;2023-08-12T01:35:47;6.38;;;3.90;;
49852;SDS011;35751;48.072;11.688;2023-08-12T01:40:47;5.18;;;3.72;;
49852;SDS011;35751;48.072;11.688;2023-08-12T01:43:13;5.07;;;3.50;;
49852;SDS011;35751;48.072;11.688;2023-08-12T01:45:40;4.72;;;3.88;;
49852;SDS011;35751;48.072;11.688;2023-08-12T01:48:06;5.45;;;4.18;;
49852;SDS011;35751;48.072;11.688;2023-08-12T01:50:31;4.93;;;4.32;;
49852;SDS011;35751;48.072;11.688;2023-08-12T01:52:57;4.68;;;4.03;;
49852;SDS011;35751;48.072;11.688;2023-08-12T01:55:23;5.88;;;4.05;;
49852;SDS011;35751;48.072;11.688;2023-08-12T01:57:48;13.32;;;5.50;;
49852;SDS011;35751;48.072;11.688;2023-08-12T02:00:14;6.05;;;4.65;;
49852;SDS011;35751;48.072;11.688;2023-08-12T02:02:40;3.75;;;3.30;;
49852;SDS011;35751;48.072;11.688;2023-08-12T02:05:06;5.30;;;4.28;;
49852;SDS011;35751;48.072;11.688;2023-08-12T02:07:31;4.10;;;3.50;;
49852;SDS011;35751;48.072;11.688;2023-08-12T02:09:57;5.28;;;4.40;;
49852;SDS011;35751;48.072;11.688;2023-08-12T02:12:25;4.90;;;3.72;;
49852;SDS011;35751;48.072;11.688;2023-08-12T02:14:50;4.20;;;3.80;;
49852;SDS011;35751;48.072;11.688;2023-08-12T02:17:21;8.95;;;4.15;;
49852;SDS011;35751;48.072;11.688;2023-08-12T02:26:26;5.43;;;3.92;;
49852;SDS011;35751;48.072;11.688;2023-08-12T02:29:14;3.83;;;3.53;;
49852;SDS011;35751;48.072;11.688;2023-08-12T02:32:01;4.20;;;3.80;;
49852;SDS011;35751;48.072;11.688;2023-08-12T02:35:22;4.93;;;3.90;;
49852;SDS011;35751;48.072;11.688;2023-08-12T02:37:58;8.52;;;4.60;;
49852;SDS011;35751;48.072;11.688;2023-08-12T02:40:29;5.43;;;4.30;;
49852;SDS011;35751;48.072;11.688;2023-08-12T02:42:54;5.70;;;4.28;;
49852;SDS011;35751;48.072;11.688;2023-08-12T02:45:22;4.60;;;4.07;;
49852;SDS011;35751;48.072;11.688;2023-08-12T02:47:53;6.28;;;5.28;;
49852;SDS011;35751;48.072;11.688;2023-08-12T02:50:18;5.53;;;4.20;;
49852;SDS011;35751;48.072;11.688;2023-08-12T02:52:44;4.57;;;3.95;;
49852;SDS011;35751;48.072;11.688;2023-08-12T02:55:09;8.25;;;4.15;;
49852;SDS011;35751;48.072;11.688;2023-08-12T02:57:35;6.05;;;3.63;;
49852;SDS011;35751;48.072;11.688;2023-08-12T03:00:00;6.50;;;4.43;;
49852;SDS011;35751;48.072;11.688;2023-08-12T03:02:25;6.53;;;4.63;;
49852;SDS011;35751;48.072;11.688;2023-08-12T03:04:51;5.25;;;3.85;;
49852;SDS011;35751;48.072;11.688;2023-08-12T03:07:16;5.65;;;3.90;;
49852;SDS011;35751;48.072;11.688;2023-08-12T03:09:42;5.80;;;4.22;;
49852;SDS011;35751;48.072;11.688;2023-08-12T03:12:08;5.60;;;3.95;;
49852;SDS011;35751;48.072;11.688;2023-08-12T03:14:33;4.93;;;4.05;;
49852;SDS011;35751;48.072;11.688;2023-08-12T03:16:58;5.97;;;3.83;;
49852;SDS011;35751;48.072;11.688;2023-08-12T03:19:24;3.95;;;3.50;;
49852;SDS011;35751;48.072;11.688;2023-08-12T03:21:49;5.45;;;3.88;;
49852;SDS011;35751;48.072;11.688;2023-08-12T03:24:14;6.40;;;3.85;;
49852;SDS011;35751;48.072;11.688;2023-08-12T03:26:40;5.57;;;4.18;;
49852;SDS011;35751;48.072;11.688;2023-08-12T03:29:05;3.95;;;3.28;;
49852;SDS011;35751;48.072;11.688;2023-08-12T03:31:30;6.15;;;5.00;;
49852;SDS011;35751;48.072;11.688;2023-08-12T03:33:56;5.68;;;4.45;;
49852;SDS011;35751;48.072;11.688;2023-08-12T03:36:21;5.03;;;4.32;;
49852;SDS011;35751;48.072;11.688;2023-08-12T03:38:46;6.38;;;4.10;;
49852;SDS011;35751;48.072;11.688;2023-08-12T03:41:11;5.65;;;4.70;;
49852;SDS011;35751;48.072;11.688;2023-08-12T03:43:38;4.95;;;4.00;;
49852;SDS011;35751;48.072;11.688;2023-08-12T03:46:03;6.38;;;4.43;;
49852;SDS011;35751;48.072;11.688;2023-08-12T03:48:28;5.78;;;4.22;;
49852;SDS011;35751;48.072;11.688;2023-08-12T03:50:54;6.13;;;4.45;;
49852;SDS011;35751;48.072;11.688;2023-08-12T03:53:19;4.95;;;4.30;;
49852;SDS011;35751;48.072;11.688;2023-08-12T03:55:44;4.75;;;4.28;;
49852;SDS011;35751;48.072;11.688;2023-08-12T03:58:10;5.85;;;4.22;;
49852;SDS011;35751;48.072;11.688;2023-08-12T04:00:35;5.63;;;4.10;;
49852;SDS011;35751;48.072;11.688;2023-08-12T04:03:05;5.57;;;4.07;;
49852;SDS011;35751;48.072;11.688;2023-08-12T04:05:31;6.72;;;3.95;;
49852;SDS011;35751;48.072;11.688;2023-08-12T04:07:56;5.18;;;4.22;;
49852;SDS011;35751;48.072;11.688;2023-08-12T04:10:21;4.80;;;3.88;;
49852;SDS011;35751;48.072;11.688;2023-08-12T04:12:47;4.80;;;3.63;;
49852;SDS011;35751;48.072;11.688;2023-08-12T04:15:12;7.32;;;3.95;;
49852;SDS011;35751;48.072;11.688;2023-08-12T04:17:37;4.55;;;3.85;;
49852;SDS011;35751;48.072;11.688;2023-08-12T04:20:05;5.38;;;4.60;;
49852;SDS011;35751;48.072;11.688;2023-08-12T04:22:32;6.15;;;5.00;;
49852;SDS011;35751;48.072;11.688;2023-08-12T04:24:57;7.28;;;5.55;;
49852;SDS011;35751;48.072;11.688;2023-08-12T04:27:22;7.35;;;5.38;;
49852;SDS011;35751;48.072;11.688;2023-08-12T04:29:47;6.03;;;5.07;;
49852;SDS011;35751;48.072;11.688;2023-08-12T04:32:13;7.72;;;5.70;;
49852;SDS011;35751;48.072;11.688;2023-08-12T04:34:41;10.07;;;4.78;;
49852;SDS011;35751;48.072;11.688;2023-08-12T04:39:57;5.90;;;5.07;;
49852;SDS011;35751;48.072;11.688;2023-08-12T04:42:22;6.38;;;5.13;;
49852;SDS011;35751;48.072;11.688;2023-08-12T04:44:48;6.25;;;5.25;;
49852;SDS011;35751;48.072;11.688;2023-08-12T04:47:13;7.78;;;4.50;;
49852;SDS011;35751;48.072;11.688;2023-08-12T04:49:38;6.97;;;5.97;;
49852;SDS011;35751;48.072;11.688;2023-08-12T04:52:04;7.32;;;5.40;;
49852;SDS011;35751;48.072;11.688;2023-08-12T04:54:32;5.85;;;4.75;;
49852;SDS011;35751;48.072;11.688;2023-08-12T04:56:57;6.82;;;4.65;;
49852;SDS011;35751;48.072;11.688;2023-08-12T04:59:24;7.82;;;5.03;;
49852;SDS011;35751;48.072;11.688;2023-08-12T05:01:49;6.90;;;4.72;;
49852;SDS011;35751;48.072;11.688;2023-08-12T05:04:15;8.25;;;4.78;;
49852;SDS011;35751;48.072;11.688;2023-08-12T05:06:40;6.97;;;4.32;;
49852;SDS011;35751;48.072;11.688;2023-08-12T05:09:08;7.07;;;4.78;;
49852;SDS011;35751;48.072;11.688;2023-08-12T05:11:36;4.93;;;4.40;;
49852;SDS011;35751;48.072;11.688;2023-08-12T05:14:01;5.30;;;4.25;;
49852;SDS011;35751;48.072;11.688;2023-08-12T05:16:27;5.10;;;3.97;;
49852;SDS011;35751;48.072;11.688;2023-08-12T05:18:54;5.72;;;4.53;;
49852;SDS011;35751;48.072;11.688;2023-08-12T05:21:19;5.78;;;4.15;;
49852;SDS011;35751;48.072;11.688;2023-08-12T05:23:44;5.85;;;4.03;;
49852;SDS011;35751;48.072;11.688;2023-08-12T05:26:10;6.43;;;5.05;;
49852;SDS011;35751;48.072;11.688;2023-08-12T05:28:35;5.10;;;3.63;;
49852;SDS011;35751;48.072;11.688;2023-08-12T05:31:00;6.38;;;4.82;;
49852;SDS011;35751;48.072;11.688;2023-08-12T05:33:26;5.13;;;4.05;;
49852;SDS011;35751;48.072;11.688;2023-08-12T05:35:51;6.93;;;4.47;;
49852;SDS011;35751;48.072;11.688;2023-08-12T05:38:16;4.80;;;3.80;;
49852;SDS011;35751;48.072;11.688;2023-08-12T05:40:42;4.50;;;3.35;;
49852;SDS011;35751;48.072;11.688;2023-08-12T05:43:07;6.10;;;4.25;;
49852;SDS011;35751;48.072;11.688;2023-08-12T05:45:33;6.80;;;3.70;;
49852;SDS011;35751;48.072;11.688;2023-08-12T05:47:58;4.68;;;3.60;;
49852;SDS011;35751;48.072;11.688;2023-08-12T05:50:24;5.55;;;3.35;;
49852;SDS011;35751;48.072;11.688;2023-08-12T05:52:49;6.25;;;3.85;;
49852;SDS011;35751;48.072;11.688;2023-08-12T05:55:14;5.78;;;4.10;;
49852;SDS011;35751;48.072;11.688;2023-08-12T05:57:40;6.07;;;3.67;;
49852;SDS011;35751;48.072;11.688;2023-08-12T06:00:06;4.03;;;3.15;;
49852;SDS011;35751;48.072;11.688;2023-08-12T06:02:31;5.45;;;3.67;;
49852;SDS011;35751;48.072;11.688;2023-08-12T06:04:57;7.43;;;3.72;;
49852;SDS011;35751;48.072;11.688;2023-08-12T06:07:22;4.45;;;3.80;;
49852;SDS011;35751;48.072;11.688;2023-08-12T06:09:48;5.15;;;3.65;;
49852;SDS011;35751;48.072;11.688;2023-08-12T06:12:14;3.78;;;3.25;;
49852;SDS011;35751;48.072;11.688;2023-08-12T06:14:40;4.47;;;3.03;;
49852;SDS011;35751;48.072;11.688;2023-08-12T06:17:05;5.60;;;3.47;;
49852;SDS011;35751;48.072;11.688;2023-08-12T06:19:31;3.17;;;2.88;;
49852;SDS011;35751;48.072;11.688;2023-08-12T06:21:56;5.32;;;3.60;;
49852;SDS011;35751;48.072;11.688;2023-08-12T06:24:22;5.78;;;3.25;;
49852;SDS011;35751;48.072;11.688;2023-08-12T06:26:47;3.50;;;3.00;;
49852;SDS011;35751;48.072;11.688;2023-08-12T06:29:12;5.03;;;3.28;;
49852;SDS011;35751;48.072;11.688;2023-08-12T06:31:38;7.95;;;3.25;;
49852;SDS011;35751;48.072;11.688;2023-08-12T06:34:03;3.70;;;2.90;;
49852;SDS011;35751;48.072;11.688;2023-08-12T06:36:29;5.72;;;3.72;;
49852;SDS011;35751;48.072;11.688;2023-08-12T06:38:54;3.50;;;3.20;;
49852;SDS011;35751;48.072;11.688;2023-08-12T06:41:19;4.72;;;3.25;;
49852;SDS011;35751;48.072;11.688;2023-08-12T06:43:45;4.00;;;3.17;;
49852;SDS011;35751;48.072;11.688;2023-08-12T06:46:10;3.80;;;3.25;;
49852;SDS011;35751;48.072;11.688;2023-08-12T06:48:38;3.95;;;3.13;;
49852;SDS011;35751;48.072;11.688;2023-08-12T06:51:04;4.35;;;3.22;;
49852;SDS011;35751;48.072;11.688;2023-08-12T06:53:35;5.13;;;3.40;;
49852;SDS011;35751;48.072;11.688;2023-08-12T06:56:01;5.53;;;3.20;;
49852;SDS011;35751;48.072;11.688;2023-08-12T06:58:26;4.97;;;3.03;;
49852;SDS011;35751;48.072;11.688;2023-08-12T07:00:52;4.00;;;3.28;;
49852;SDS011;35751;48.072;11.688;2023-08-12T07:03:18;5.70;;;3.08;;
49852;SDS011;35751;48.072;11.688;2023-08-12T07:05:44;4.80;;;3.55;;
49852;SDS011;35751;48.072;11.688;2023-08-12T07:08:09;3.05;;;2.75;;
49852;SDS011;35751;48.072;11.688;2023-08-12T07:10:37;3.55;;;2.80;;
49852;SDS011;35751;48.072;11.688;2023-08-12T07:13:03;5.57;;;2.85;;
49852;SDS011;35751;48.072;11.688;2023-08-12T07:15:29;3.33;;;2.88;;
49852;SDS011;35751;48.072;11.688;2023-08-12T07:17:54;3.88;;;3.13;;
49852;SDS011;35751;48.072;11.688;2023-08-12T07:20:19;5.20;;;3.28;;
49852;SDS011;35751;48.072;11.688;2023-08-12T07:22:45;8.82;;;3.55;;
49852;SDS011;35751;48.072;11.688;2023-08-12T07:25:10;17.52;;;4.00;;
49852;SDS011;35751;48.072;11.688;2023-08-12T07:27:36;3.60;;;3.10;;
49852;SDS011;35751;48.072;11.688;2023-08-12T07:30:01;4.20;;;2.72;;
49852;SDS011;35751;48.072;11.688;2023-08-12T07:32:27;3.28;;;2.97;;
49852;SDS011;35751;48.072;11.688;2023-08-12T07:34:53;5.38;;;3.67;;
49852;SDS011;35751;48.072;11.688;2023-08-12T07:37:18;5.47;;;2.83;;
49852;SDS011;35751;48.072;11.688;2023-08-12T07:39:52;4.03;;;2.95;;
49852;SDS011;35751;48.072;11.688;2023-08-12T07:42:19;2.83;;;2.63;;
49852;SDS011;35751;48.072;11.688;2023-08-12T07:44:45;11.55;;;4.13;;
49852;SDS011;35751;48.072;11.688;2023-08-12T07:47:13;4.03;;;3.13;;
49852;SDS011;35751;48.072;11.688;2023-08-12T07:49:38;5.45;;;3.47;;
49852;SDS011;35751;48.072;11.688;2023-08-12T07:52:04;3.60;;;2.95;;
49852;SDS011;35751;48.072;11.688;2023-08-12T07:54:29;21.80;;;4.63;;
49852;SDS011;35751;48.072;11.688;2023-08-12T07:56:55;3.58;;;3.22;;
49852;SDS011;35751;48.072;11.688;2023-08-12T07:59:20;3.45;;;2.80;;
49852;SDS011;35751;48.072;11.688;2023-08-12T08:01:45;4.18;;;2.88;;
49852;SDS011;35751;48.072;11.688;2023-08-12T08:04:11;3.22;;;2.83;;
49852;SDS011;35751;48.072;11.688;2023-08-12T08:06:36;3.92;;;2.83;;
49852;SDS011;35751;48.072;11.688;2023-08-12T08:09:02;3.58;;;3.28;;
49852;SDS011;35751;48.072;11.688;2023-08-12T08:11:29;3.97;;;2.95;;
49852;SDS011;35751;48.072;11.688;2023-08-12T08:13:55;3.33;;;3.03;;
49852;SDS011;35751;48.072;11.688;2023-08-12T08:16:23;2.78;;;2.58;;
49852;SDS011;35751;48.072;11.688;2023-08-12T08:18:49;4.05;;;3.17;;
49852;SDS011;35751;48.072;11.688;2023-08-12T08:21:14;3.72;;;2.97;;
49852;SDS011;35751;48.072;11.688;2023-08-12T08:23:40;4.28;;;2.70;;
49852;SDS011;35751;48.072;11.688;2023-08-12T08:26:06;3.05;;;2.75;;
49852;SDS011;35751;48.072;11.688;2023-08-12T08:28:31;4.35;;;3.65;;
49852;SDS011;35751;48.072;11.688;2023-08-12T08:30:57;3.80;;;3.15;;
49852;SDS011;35751;48.072;11.688;2023-08-12T08:33:23;3.38;;;2.72;;
49852;SDS011;35751;48.072;11.688;2023-08-12T08:35:49;4.18;;;2.95;;
49852;SDS011;35751;48.072;11.688;2023-08-12T08:38:15;3.28;;;2.42;;
49852;SDS011;35751;48.072;11.688;2023-08-12T08:40:45;3.65;;;2.70;;
49852;SDS011;35751;48.072;11.688;2023-08-12T08:43:11;3.05;;;2.75;;
49852;SDS011;35751;48.072;11.688;2023-08-12T08:45:40;3.13;;;2.72;;
49852;SDS011;35751;48.072;11.688;2023-08-12T08:48:07;5.80;;;2.88;;
49852;SDS011;35751;48.072;11.688;2023-08-12T08:50:32;3.05;;;2.75;;
49852;SDS011;35751;48.072;11.688;2023-08-12T08:52:58;3.22;;;2.88;;
49852;SDS011;35751;48.072;11.688;2023-08-12T08:55:24;3.90;;;3.00;;
49852;SDS011;35751;48.072;11.688;2023-08-12T08:57:50;3.40;;;2.90;;
49852;SDS011;35751;48.072;11.688;2023-08-12T09:00:16;4.13;;;2.92;;
49852;SDS011;35751;48.072;11.688;2023-08-12T09:02:43;4.32;;;2.72;;
49852;SDS011;35751;48.072;11.688;2023-08-12T09:05:09;2.72;;;2.53;;
49852;SDS011;35751;48.072;11.688;2023-08-12T09:07:35;2.97;;;2.78;;
49852;SDS011;35751;48.072;11.688;2023-08-12T09:10:00;5.45;;;2.78;;
49852;SDS011;35751;48.072;11.688;2023-08-12T09:12:26;3.05;;;2.75;;
49852;SDS011;35751;48.072;11.688;2023-08-12T09:14:52;4.93;;;3.45;;
49852;SDS011;35751;48.072;11.688;2023-08-12T09:17:17;5.43;;;3.05;;
49852;SDS011;35751;48.072;11.688;2023-08-12T09:19:43;3.53;;;2.97;;
49852;SDS011;35751;48.072;11.688;2023-08-12T09:22:08;4.28;;;3.10;;
49852;SDS011;35751;48.072;11.688;2023-08-12T09:24:37;4.25;;;2.85;;
49852;SDS011;35751;48.072;11.688;2023-08-12T09:27:02;3.65;;;2.90;;
49852;SDS011;35751;48.072;11.688;2023-08-12T09:29:31;3.30;;;3.00;;
49852;SDS011;35751;48.072;11.688;2023-08-12T09:32:13;3.13;;;2.83;;
49852;SDS011;35751;48.072;11.688;2023-08-12T09:34:50;4.18;;;3.72;;
49852;SDS011;35751;48.072;11.688;2023-08-12T09:37:17;4.13;;;3.53;;
49852;SDS011;35751;48.072;11.688;2023-08-12T09:39:48;3.70;;;3.28;;
49852;SDS011;35751;48.072;11.688;2023-08-12T09:42:17;3.75;;;3.17;;
49852;SDS011;35751;48.072;11.688;2023-08-12T09:44:43;4.63;;;3.13;;
49852;SDS011;35751;48.072;11.688;2023-08-12T09:47:08;3.75;;;3.45;;
49852;SDS011;35751;48.072;11.688;2023-08-12T09:49:34;4.07;;;3.60;;
49852;SDS011;35751;48.072;11.688;2023-08-12T09:52:00;3.90;;;3.50;;
49852;SDS011;35751;48.072;11.688;2023-08-12T09:54:27;4.05;;;3.65;;
49852;SDS011;35751;48.072;11.688;2023-08-12T09:57:02;3.28;;;2.97;;
49852;SDS011;35751;48.072;11.688;2023-08-12T10:02:11;3.70;;;2.90;;
49852;SDS011;35751;48.072;11.688;2023-08-12T10:04:39;5.68;;;3.70;;
49852;SDS011;35751;48.072;11.688;2023-08-12T10:07:06;3.88;;;3.38;;
49852;SDS011;35751;48.072;11.688;2023-08-12T10:09:38;4.15;;;3.58;;
49852;SDS011;35751;48.072;11.688;2023-08-12T10:12:05;4.25;;;3.65;;
49852;SDS011;35751;48.072;11.688;2023-08-12T10:14:31;4.15;;;3.20;;
49852;SDS011;35751;48.072;11.688;2023-08-12T10:16:56;3.85;;;3.25;;
49852;SDS011;35751;48.072;11.688;2023-08-12T10:19:23;3.35;;;3.08;;
49852;SDS011;35751;48.072;11.688;2023-08-12T10:21:50;7.53;;;3.63;;
49852;SDS011;35751;48.072;11.688;2023-08-12T10:24:19;5.10;;;3.33;;
49852;SDS011;35751;48.072;11.688;2023-08-12T10:26:48;4.53;;;3.90;;
49852;SDS011;35751;48.072;11.688;2023-08-12T10:29:15;4.85;;;3.92;;
49852;SDS011;35751;48.072;11.688;2023-08-12T10:31:40;4.85;;;3.17;;
49852;SDS011;35751;48.072;11.688;2023-08-12T10:34:17;4.20;;;2.97;;
49852;SDS011;35751;48.072;11.688;2023-08-12T10:36:50;3.53;;;3.20;;
49852;SDS011;35751;48.072;11.688;2023-08-12T10:39:19;4.47;;;4.07;;
49852;SDS011;35751;48.072;11.688;2023-08-12T10:41:54;5.45;;;3.40;;
49852;SDS011;35751;48.072;11.688;2023-08-12T10:44:20;3.85;;;3.45;;
49852;SDS011;35751;48.072;11.688;2023-08-12T10:46:50;5.40;;;3.28;;
49852;SDS011;35751;48.072;11.688;2023-08-12T10:49:16;4.55;;;3.10;;
49852;SDS011;35751;48.072;11.688;2023-08-12T10:51:51;4.78;;;3.42;;
49852;SDS011;35751;48.072;11.688;2023-08-12T10:54:21;3.30;;;2.97;;
49852;SDS011;35751;48.072;11.688;2023-08-12T10:57:07;7.72;;;4.00;;
49852;SDS011;35751;48.072;11.688;2023-08-12T11:02:17;8.93;;;3.33;;
49852;SDS011;35751;48.072;11.688;2023-08-12T11:10:32;4.25;;;3.25;;
49852;SDS011;35751;48.072;11.688;2023-08-12T11:12:58;2.97;;;2.63;;
49852;SDS011;35751;48.072;11.688;2023-08-12T11:15:43;3.13;;;2.67;;
49852;SDS011;35751;48.072;11.688;2023-08-12T11:18:17;2.97;;;2.65;;
49852;SDS011;35751;48.072;11.688;2023-08-12T11:20:53;4.25;;;2.78;;
49852;SDS011;35751;48.072;11.688;2023-08-12T11:23:18;2.97;;;2.70;;
49852;SDS011;35751;48.072;11.688;2023-08-12T11:25:45;3.17;;;2.80;;
49852;SDS011;35751;48.072;11.688;2023-08-12T11:28:11;3.33;;;3.03;;
49852;SDS011;35751;48.072;11.688;2023-08-12T11:30:40;2.58;;;2.38;;
49852;SDS011;35751;48.072;11.688;2023-08-12T11:33:07;2.63;;;2.42;;
49852;SDS011;35751;48.072;11.688;2023-08-12T11:35:32;4.15;;;2.70;;
49852;SDS011;35751;48.072;11.688;2023-08-12T11:37:58;3.92;;;3.53;;
49852;SDS011;35751;48.072;11.688;2023-08-12T11:40:25;3.85;;;2.80;;
49852;SDS011;35751;48.072;11.688;2023-08-12T11:43:05;2.50;;;2.30;;
49852;SDS011;35751;48.072;11.688;2023-08-12T11:45:35;3.17;;;2.88;;
49852;SDS011;35751;48.072;11.688;2023-08-12T11:48:21;6.30;;;3.78;;
49852;SDS011;35751;48.072;11.688;2023-08-12T11:50:48;4.13;;;2.75;;
49852;SDS011;35751;48.072;11.688;2023-08-12T11:53:14;3.03;;;2.83;;
49852;SDS011;35751;48.072;11.688;2023-08-12T11:55:52;6.53;;;2.88;;
49852;SDS011;35751;48.072;11.688;2023-08-12T11:58:25;3.40;;;3.10;;
49852;SDS011;35751;48.072;11.688;2023-08-12T12:01:02;3.47;;;2.78;;
49852;SDS011;35751;48.072;11.688;2023-08-12T12:03:31;3.38;;;3.00;;
49852;SDS011;35751;48.072;11.688;2023-08-12T12:05:58;3.00;;;2.42;;
49852;SDS011;35751;48.072;11.688;2023-08-12T12:08:24;2.47;;;2.25;;
49852;SDS011;35751;48.072;11.688;2023-08-12T12:10:49;3.22;;;2.30;;
49852;SDS011;35751;48.072;11.688;2023-08-12T12:13:14;2.50;;;2.30;;
49852;SDS011;35751;48.072;11.688;2023-08-12T12:15:43;5.65;;;2.72;;
49852;SDS011;35751;48.072;11.688;2023-08-12T12:18:09;3.67;;;2.50;;
49852;SDS011;35751;48.072;11.688;2023-08-12T12:20:36;2.92;;;2.33;;
49852;SDS011;35751;48.072;11.688;2023-08-12T12:23:07;2.50;;;2.22;;
49852;SDS011;35751;48.072;11.688;2023-08-12T12:25:35;4.40;;;1.90;;
49852;SDS011;35751;48.072;11.688;2023-08-12T12:28:12;2.45;;;2.25;;
49852;SDS011;35751;48.072;11.688;2023-08-12T12:30:43;3.60;;;2.30;;
49852;SDS011;35751;48.072;11.688;2023-08-12T12:33:47;2.95;;;2.70;;
49852;SDS011;35751;48.072;11.688;2023-08-12T12:36:12;2.80;;;2.47;;
49852;SDS011;35751;48.072;11.688;2023-08-12T12:42:56;2.53;;;2.30;;
49852;SDS011;35751;48.072;11.688;2023-08-12T12:45:23;2.75;;;2.15;;
49852;SDS011;35751;48.072;11.688;2023-08-12T12:47:52;3.67;;;2.15;;
49852;SDS011;35751;48.072;11.688;2023-08-12T12:50:17;2.58;;;2.17;;
49852;SDS011;35751;48.072;11.688;2023-08-12T12:52:43;2.72;;;2.53;;
49852;SDS011;35751;48.072;11.688;2023-08-12T12:55:09;3.78;;;2.63;;
49852;SDS011;35751;48.072;11.688;2023-08-12T12:57:34;8.50;;;2.53;;
49852;SDS011;35751;48.072;11.688;2023-08-12T13:00:02;2.45;;;2.25;;
49852;SDS011;35751;48.072;11.688;2023-08-12T13:02:34;2.70;;;2.10;;
49852;SDS011;35751;48.072;11.688;2023-08-12T13:05:00;2.65;;;2.05;;
49852;SDS011;35751;48.072;11.688;2023-08-12T13:07:28;2.60;;;2.35;;
49852;SDS011;35751;48.072;11.688;2023-08-12T13:09:53;4.35;;;2.65;;
49852;SDS011;35751;48.072;11.688;2023-08-12T13:12:18;3.15;;;2.33;;
49852;SDS011;35751;48.072;11.688;2023-08-12T13:14:44;3.20;;;2.17;;
49852;SDS011;35751;48.072;11.688;2023-08-12T13:17:15;4.28;;;2.63;;
49852;SDS011;35751;48.072;11.688;2023-08-12T13:19:41;3.67;;;2.40;;
49852;SDS011;35751;48.072;11.688;2023-08-12T13:22:06;3.13;;;2.63;;
49852;SDS011;35751;48.072;11.688;2023-08-12T13:24:31;2.30;;;2.10;;
49852;SDS011;35751;48.072;11.688;2023-08-12T13:27:02;2.38;;;2.17;;
49852;SDS011;35751;48.072;11.688;2023-08-12T13:29:28;4.68;;;2.97;;
49852;SDS011;35751;48.072;11.688;2023-08-12T13:32:04;3.33;;;3.03;;
49852;SDS011;35751;48.072;11.688;2023-08-12T13:34:42;4.30;;;2.58;;
49852;SDS011;35751;48.072;11.688;2023-08-12T13:37:08;3.10;;;2.75;;
49852;SDS011;35751;48.072;11.688;2023-08-12T13:39:33;4.38;;;2.90;;
49852;SDS011;35751;48.072;11.688;2023-08-12T13:42:19;3.10;;;2.80;;
49852;SDS011;35751;48.072;11.688;2023-08-12T13:45:00;3.25;;;2.95;;
49852;SDS011;35751;48.072;11.688;2023-08-12T13:47:25;3.00;;;2.70;;
49852;SDS011;35751;48.072;11.688;2023-08-12T13:49:53;3.83;;;3.10;;
49852;SDS011;35751;48.072;11.688;2023-08-12T13:52:19;4.38;;;2.72;;
49852;SDS011;35751;48.072;11.688;2023-08-12T13:54:44;3.65;;;2.80;;
49852;SDS011;35751;48.072;11.688;2023-08-12T13:57:12;3.15;;;2.85;;
49852;SDS011;35751;48.072;11.688;2023-08-12T13:59:38;3.35;;;3.00;;
49852;SDS011;35751;48.072;11.688;2023-08-12T14:02:05;3.83;;;2.80;;
49852;SDS011;35751;48.072;11.688;2023-08-12T14:04:39;3.65;;;2.40;;
49852;SDS011;35751;48.072;11.688;2023-08-12T14:07:05;4.18;;;3.03;;
49852;SDS011;35751;48.072;11.688;2023-08-12T14:09:30;3.53;;;2.80;;
49852;SDS011;35751;48.072;11.688;2023-08-12T14:11:56;3.70;;;3.25;;
49852;SDS011;35751;48.072;11.688;2023-08-12T14:14:22;3.90;;;2.85;;
49852;SDS011;35751;48.072;11.688;2023-08-12T14:16:47;3.45;;;2.95;;
49852;SDS011;35751;48.072;11.688;2023-08-12T14:19:13;3.78;;;2.95;;
49852;SDS011;35751;48.072;11.688;2023-08-12T14:21:41;4.07;;;2.78;;
49852;SDS011;35751;48.072;11.688;2023-08-12T14:24:07;3.05;;;2.75;;
49852;SDS011;35751;48.072;11.688;2023-08-12T14:26:32;5.97;;;2.90;;
49852;SDS011;35751;48.072;11.688;2023-08-12T14:28:58;6.68;;;3.20;;
49852;SDS011;35751;48.072;11.688;2023-08-12T14:31:23;3.55;;;2.70;;
49852;SDS011;35751;48.072;11.688;2023-08-12T14:33:51;4.43;;;3.05;;
49852;SDS011;35751;48.072;11.688;2023-08-12T14:36:17;3.67;;;3.17;;
49852;SDS011;35751;48.072;11.688;2023-08-12T14:38:42;5.00;;;3.20;;
49852;SDS011;35751;48.072;11.688;2023-08-12T14:41:07;4.60;;;2.90;;
49852;SDS011;35751;48.072;11.688;2023-08-12T14:43:35;3.30;;;2.90;;
49852;SDS011;35751;48.072;11.688;2023-08-12T14:46:02;4.47;;;2.83;;
49852;SDS011;35751;48.072;11.688;2023-08-12T14:48:27;4.07;;;2.72;;
49852;SDS011;35751;48.072;11.688;2023-08-12T14:50:56;8.80;;;2.80;;
49852;SDS011;35751;48.072;11.688;2023-08-12T14:53:21;4.47;;;3.67;;
49852;SDS011;35751;48.072;11.688;2023-08-12T14:55:49;5.70;;;3.03;;
49852;SDS011;35751;48.072;11.688;2023-08-12T14:58:14;5.57;;;3.38;;
49852;SDS011;35751;48.072;11.688;2023-08-12T15:00:42;5.07;;;3.42;;